createdAt,value
2023-05-21T00:07:30.056Z,47.39
2023-05-21T00:13:03.443Z,47.42
2023-05-21T00:17:57.026Z,47.59
2023-05-21T00:23:04.761Z,47.71
2023-05-21T00:28:13.626Z,47.75
2023-05-21T00:33:25.806Z,47.81
2023-05-21T00:38:47.635Z,47.75
2023-05-21T00:45:27.168Z,47.79
2023-05-21T00:49:48.851Z,47.79
2023-05-21T00:54:44.194Z,47.91
2023-05-21T00:59:56.203Z,47.81
2023-05-21T01:05:01.836Z,47.95
2023-05-21T01:10:20.531Z,48.04
2023-05-21T01:15:26.408Z,48.04
2023-05-21T01:20:55.074Z,48.07
2023-05-21T01:25:52.070Z,48.07
2023-05-21T01:31:00.123Z,48.07
2023-05-21T01:36:15.308Z,48.04
2023-05-21T01:41:40.766Z,47.94
2023-05-21T01:47:17.390Z,47.91
2023-05-21T01:52:33.353Z,47.91
2023-05-21T01:58:39.614Z,47.84
2023-05-21T02:02:49.978Z,47.81
2023-05-21T02:08:19.119Z,47.80
2023-05-21T02:13:49.232Z,47.78
2023-05-21T02:20:39.572Z,47.73
2023-05-21T02:24:33.532Z,47.81
2023-05-21T02:29:41.315Z,47.74
2023-05-21T02:34:52.633Z,47.75
2023-05-21T02:40:25.172Z,47.71
2023-05-21T02:45:40.133Z,47.62
2023-05-21T02:50:55.112Z,47.55
2023-05-21T02:56:21.886Z,47.59
2023-05-21T03:01:19.040Z,47.55
2023-05-21T03:06:35.704Z,47.53
2023-05-21T03:11:48.295Z,47.42
2023-05-21T03:17:00.838Z,47.44
2023-05-21T03:22:13.334Z,47.38
2023-05-21T03:27:30.128Z,47.34
2023-05-21T03:32:43.970Z,47.33
2023-05-21T03:37:56.729Z,47.29
2023-05-21T03:43:42.898Z,47.27
2023-05-21T03:48:58.578Z,47.28
2023-05-21T03:54:10.844Z,47.23
2023-05-21T03:59:18.822Z,47.24
2023-05-21T04:04:35.468Z,47.14
2023-05-21T04:09:58.017Z,47.04
2023-05-21T04:15:12.516Z,47.01
2023-05-21T04:20:20.289Z,47.04
2023-05-21T04:25:36.827Z,46.97
2023-05-21T04:35:22.280Z,47.15
2023-05-21T04:36:05.549Z,47.08
2023-05-21T04:41:28.320Z,47.33
2023-05-21T04:46:36.390Z,47.44
2023-05-21T04:51:59.148Z,47.55
2023-05-21T04:57:37.520Z,47.66
2023-05-21T05:02:51.502Z,47.76
2023-05-21T05:07:59.335Z,47.78
2023-05-21T05:13:50.506Z,47.78
2023-05-21T05:18:57.757Z,47.72
2023-05-21T05:24:06.166Z,48.08
2023-05-21T05:29:13.393Z,48.17
2023-05-21T05:34:22.097Z,48.20
2023-05-21T05:39:29.535Z,48.22
2023-05-21T05:44:38.999Z,48.22
2023-05-21T05:49:46.412Z,48.21
2023-05-21T05:55:00.065Z,48.02
2023-05-21T06:00:09.137Z,48.15
2023-05-21T06:05:14.483Z,47.97
2023-05-21T06:10:25.169Z,48.09
2023-05-21T06:15:41.687Z,48.13
2023-05-21T06:20:48.966Z,48.07
2023-05-21T06:25:56.569Z,47.78
2023-05-21T06:31:03.808Z,47.53
2023-05-21T06:36:11.240Z,47.41
2023-05-21T06:41:18.590Z,47.32
2023-05-21T06:46:26.092Z,47.23
2023-05-21T06:51:38.403Z,48.24
2023-05-21T06:56:47.195Z,48.13
2023-05-21T07:01:54.729Z,47.60
2023-05-21T07:07:05.129Z,47.91
2023-05-21T07:12:10.254Z,48.22
2023-05-21T07:17:23.109Z,48.03
2023-05-21T07:22:43.159Z,47.70
2023-05-21T07:27:46.814Z,47.70
2023-05-21T07:32:54.353Z,47.97
2023-05-21T07:38:16.449Z,47.90
2023-05-21T07:43:23.926Z,47.96
2023-05-21T07:48:32.150Z,49.26
2023-05-21T07:53:38.800Z,49.10
2023-05-21T07:58:50.921Z,49.72
2023-05-21T08:03:58.344Z,49.79
2023-05-21T08:09:05.528Z,49.87
2023-05-21T08:14:13.002Z,49.62
2023-05-21T08:19:20.329Z,50.45
2023-05-21T08:24:30.473Z,49.48
2023-05-21T08:29:40.098Z,49.28
2023-05-21T08:34:44.989Z,48.80
2023-05-21T08:39:52.337Z,48.95
2023-05-21T08:44:59.633Z,49.33
2023-05-21T08:50:07.012Z,49.84
2023-05-21T08:55:14.466Z,50.14
2023-05-21T09:00:25.909Z,50.88
2023-05-21T09:05:35.153Z,49.63
2023-05-21T09:10:42.231Z,49.34
2023-05-21T09:16:25.201Z,49.01
2023-05-21T09:21:32.640Z,48.98
2023-05-21T09:26:40.217Z,49.00
2023-05-21T09:31:48.111Z,49.55
2023-05-21T09:37:06.553Z,50.31
2023-05-21T09:42:11.243Z,50.64
2023-05-21T09:47:21.545Z,50.74
2023-05-21T09:52:27.399Z,50.96
2023-05-21T09:57:42.720Z,51.44
2023-05-21T10:02:53.988Z,51.29
2023-05-21T10:08:10.464Z,51.99
2023-05-21T10:13:18.050Z,52.64
2023-05-21T10:19:00.756Z,53.19
2023-05-21T10:24:08.222Z,53.41
2023-05-21T10:29:38.966Z,53.48
2023-05-21T10:34:47.043Z,53.35
2023-05-21T10:39:54.431Z,53.67
2023-05-21T10:45:07.926Z,53.70
2023-05-21T10:50:33.781Z,54.07
2023-05-21T10:55:50.380Z,54.19
2023-05-21T11:00:58.339Z,54.15
2023-05-21T11:06:18.138Z,53.80
2023-05-21T11:11:46.676Z,54.49
2023-05-21T11:16:49.678Z,54.07
2023-05-21T11:22:00.022Z,54.36
2023-05-21T11:27:07.258Z,54.36
2023-05-21T11:32:14.525Z,54.51
2023-05-21T11:37:21.885Z,53.83
2023-05-21T11:42:31.169Z,53.74
2023-05-21T11:47:49.098Z,54.47
2023-05-21T11:53:01.250Z,54.79
2023-05-21T11:58:08.631Z,55.16
2023-05-21T12:03:25.210Z,54.92
2023-05-21T12:08:24.440Z,56.04
2023-05-21T12:13:31.901Z,56.47
2023-05-21T12:18:56.730Z,55.79
2023-05-21T12:23:56.944Z,55.66
2023-05-21T12:29:44.809Z,55.33
2023-05-21T12:34:52.481Z,54.67
2023-05-21T12:40:19.536Z,54.21
2023-05-21T12:46:10.491Z,53.80
2023-05-21T12:50:46.373Z,53.67
2023-05-21T12:55:56.077Z,53.10
2023-05-21T13:01:36.285Z,52.92
2023-05-21T13:06:43.670Z,53.10
2023-05-21T13:12:02.562Z,52.54
2023-05-21T13:17:18.330Z,51.56
2023-05-21T13:22:34.558Z,51.61
2023-05-21T13:27:55.197Z,51.55
2023-05-21T13:33:01.998Z,51.30
2023-05-21T13:38:19.565Z,51.33
2023-05-21T13:43:32.535Z,51.71
2023-05-21T13:48:40.061Z,52.05
2023-05-21T13:54:24.086Z,51.93
2023-05-21T13:59:33.279Z,51.48
2023-05-21T14:04:49.324Z,51.43
2023-05-21T14:10:36.725Z,51.49
2023-05-21T14:16:20.779Z,51.36
2023-05-21T14:22:04.839Z,51.28
2023-05-21T14:27:47.105Z,51.22
2023-05-21T14:38:49.343Z,50.97
2023-05-21T14:44:13.516Z,50.99
2023-05-21T14:49:57.024Z,51.09
2023-05-21T14:56:00.630Z,51.03
2023-05-21T15:01:11.438Z,51.09
2023-05-21T15:06:29.817Z,51.01
2023-05-21T15:11:35.775Z,50.98
2023-05-21T15:16:43.273Z,50.95
2023-05-21T15:22:05.539Z,50.82
2023-05-21T15:27:50.599Z,50.75
2023-05-21T15:32:58.987Z,50.65
2023-05-21T15:38:09.437Z,50.55
2023-05-21T15:43:18.883Z,50.42
2023-05-21T15:48:34.376Z,50.39
2023-05-21T15:53:48.917Z,50.33
2023-05-21T15:58:56.664Z,50.31
2023-05-21T16:04:12.935Z,50.28
2023-05-21T16:09:24.062Z,50.23
2023-05-21T16:14:48.085Z,50.19
2023-05-21T16:19:50.870Z,50.18
2023-05-21T16:25:00.136Z,50.08
2023-05-21T16:30:09.394Z,50.12
2023-05-21T16:35:27.013Z,49.42
2023-05-21T16:40:29.930Z,49.14
2023-05-21T16:45:44.308Z,49.50
2023-05-21T16:50:52.333Z,50.00
2023-05-21T16:55:59.996Z,50.29
2023-05-21T17:01:08.081Z,50.13
2023-05-21T17:06:16.546Z,50.27
2023-05-21T17:11:27.628Z,50.71
2023-05-21T17:16:35.681Z,51.14
2023-05-21T17:21:43.442Z,52.70
2023-05-21T17:26:51.799Z,51.34
2023-05-21T17:32:05.031Z,52.44
2023-05-21T17:37:13.180Z,53.73
2023-05-21T17:42:24.153Z,50.68
2023-05-21T17:47:34.541Z,50.88
2023-05-21T17:52:54.548Z,50.99
2023-05-21T17:57:57.761Z,53.77
2023-05-21T18:03:15.488Z,54.26
2023-05-21T18:08:30.065Z,53.54
2023-05-21T18:13:47.376Z,54.90
2023-05-21T18:18:58.832Z,53.58
2023-05-21T18:24:33.313Z,55.08
2023-05-21T18:29:44.557Z,55.17
2023-05-21T18:34:52.759Z,55.55
2023-05-21T18:40:00.720Z,55.41
2023-05-21T18:45:12.007Z,55.07
2023-05-21T18:50:20.114Z,54.63
2023-05-21T18:55:28.169Z,55.53
2023-05-21T19:00:36.287Z,53.97
2023-05-21T19:05:45.359Z,55.57
2023-05-21T19:10:53.445Z,55.47
2023-05-21T19:16:03.012Z,55.83
2023-05-21T19:21:46.619Z,55.94
2023-05-21T19:26:58.257Z,56.16
2023-05-21T19:32:08.273Z,56.25
2023-05-21T19:37:16.067Z,56.20
2023-05-21T19:42:27.202Z,55.83
2023-05-21T19:47:35.152Z,56.07
2023-05-21T19:52:55.728Z,55.72
2023-05-21T19:58:00.158Z,55.50
2023-05-21T20:03:08.097Z,55.61
2023-05-21T20:08:20.342Z,55.41
2023-05-21T20:13:45.443Z,55.34
2023-05-21T20:18:57.374Z,54.96
2023-05-21T20:24:27.234Z,54.53
2023-05-21T20:29:35.881Z,54.00
2023-05-21T20:35:02.162Z,53.58
2023-05-21T20:40:00.313Z,52.99
2023-05-21T20:45:16.170Z,53.13
2023-05-21T20:50:29.203Z,52.84
2023-05-21T20:55:48.319Z,52.41
2023-05-21T21:00:56.107Z,52.06
2023-05-21T21:06:11.892Z,51.72
2023-05-21T21:11:34.855Z,51.32
2023-05-21T21:16:46.247Z,51.09
2023-05-21T21:21:58.403Z,50.80
2023-05-21T21:27:11.948Z,50.52
2023-05-21T21:32:20.887Z,50.41
2023-05-21T21:37:33.151Z,50.24
2023-05-21T21:42:40.688Z,50.15
2023-05-21T21:48:00.458Z,49.52
2023-05-21T21:53:10.890Z,49.35
2023-05-21T21:58:23.545Z,49.19
2023-05-21T22:03:31.289Z,49.00
2023-05-21T22:08:38.712Z,48.78
2023-05-21T22:13:46.425Z,48.49
2023-05-21T22:19:09.971Z,48.39
2023-05-21T22:24:30.238Z,48.16
2023-05-21T22:29:21.594Z,48.13
2023-05-21T22:35:16.259Z,47.97
2023-05-21T22:40:18.136Z,47.94
2023-05-21T22:46:00.561Z,47.87
2023-05-21T22:57:44.196Z,48.46
2023-05-21T23:03:43.133Z,48.07
2023-05-21T23:09:25.746Z,48.08
2023-05-21T23:14:54.748Z,48.00
2023-05-21T23:20:15.613Z,48.40
2023-05-21T23:26:02.873Z,48.54
2023-05-21T23:33:20.367Z,48.42
2023-05-21T23:37:29.618Z,48.63
2023-05-21T23:43:12.241Z,48.79
2023-05-21T23:58:51.482Z,48.63
